createdAt,value
2022-08-17T00:01:06.854Z,19.52
2022-08-17T00:03:46.779Z,19.47
2022-08-17T00:06:24.784Z,19.47
2022-08-17T00:09:04.782Z,19.48
2022-08-17T00:11:34.810Z,19.47
2022-08-17T00:14:16.795Z,19.43
2022-08-17T00:16:56.314Z,19.34
2022-08-17T00:19:32.929Z,19.20
2022-08-17T00:22:35.052Z,19.15
2022-08-17T00:25:00.786Z,19.10
2022-08-17T00:27:33.777Z,19.05
2022-08-17T00:30:06.803Z,19.09
2022-08-17T00:33:13.797Z,19.12
2022-08-17T00:35:44.400Z,19.12
2022-08-17T00:38:18.784Z,19.09
2022-08-17T00:40:59.280Z,19.07
2022-08-17T00:43:28.023Z,19.04
2022-08-17T00:46:00.778Z,19.05
2022-08-17T00:48:34.772Z,19.02
2022-08-17T00:51:55.824Z,19.02
2022-08-17T00:54:25.467Z,19.01
2022-08-17T00:57:01.979Z,19.08
2022-08-17T00:59:32.282Z,19.16
2022-08-17T01:02:06.762Z,19.20
2022-08-17T01:04:33.515Z,19.18
2022-08-17T01:07:08.770Z,19.13
2022-08-17T01:09:42.796Z,19.10
2022-08-17T01:12:16.780Z,19.02
2022-08-17T01:14:49.943Z,18.92
2022-08-17T01:17:16.478Z,18.81
2022-08-17T01:19:50.781Z,18.64
2022-08-17T01:22:20.017Z,18.59
2022-08-17T01:25:00.777Z,18.69
2022-08-17T01:27:34.817Z,18.80
2022-08-17T01:30:57.284Z,18.79
2022-08-17T01:33:13.023Z,18.89
2022-08-17T01:35:46.770Z,19.01
2022-08-17T01:38:13.415Z,19.05
2022-08-17T01:40:57.442Z,19.09
2022-08-17T01:43:30.080Z,19.23
2022-08-17T01:46:03.754Z,19.30
2022-08-17T01:48:36.539Z,19.35
2022-08-17T01:51:12.769Z,19.39
2022-08-17T01:53:44.231Z,19.43
2022-08-17T01:56:20.815Z,19.47
2022-08-17T01:58:47.487Z,19.50
2022-08-17T02:01:23.844Z,19.58
2022-08-17T02:03:53.397Z,19.72
2022-08-17T02:06:44.981Z,20.06
2022-08-17T02:09:23.238Z,20.30
2022-08-17T02:11:52.804Z,20.45
2022-08-17T02:14:26.771Z,20.58
2022-08-17T02:16:53.767Z,20.60
2022-08-17T02:19:26.777Z,20.61
2022-08-17T02:22:00.747Z,20.66
2022-08-17T02:25:00.552Z,20.71
2022-08-17T02:27:32.748Z,20.74
2022-08-17T02:30:05.765Z,20.66
2022-08-17T02:32:53.001Z,20.56
2022-08-17T02:35:27.784Z,20.46
2022-08-17T02:38:00.765Z,20.38
2022-08-17T02:40:35.703Z,20.28
2022-08-17T02:43:11.763Z,20.20
2022-08-17T02:45:44.752Z,20.22
2022-08-17T02:48:11.655Z,20.27
2022-08-17T02:50:44.788Z,20.27
2022-08-17T02:53:18.751Z,20.24
2022-08-17T02:55:45.378Z,20.22
2022-08-17T02:58:34.472Z,20.16
2022-08-17T03:01:12.860Z,20.15
2022-08-17T03:03:46.809Z,20.14
2022-08-17T03:06:20.768Z,20.13
2022-08-17T03:08:53.760Z,20.16
2022-08-17T03:11:26.761Z,20.16
2022-08-17T03:13:53.201Z,20.19
2022-08-17T03:16:27.796Z,20.20
2022-08-17T03:18:54.986Z,20.15
2022-08-17T03:21:28.767Z,20.10
2022-08-17T03:24:01.757Z,20.09
2022-08-17T03:26:42.749Z,20.11
2022-08-17T03:29:18.984Z,20.09
2022-08-17T03:31:54.756Z,20.08
2022-08-17T03:34:27.765Z,20.04
2022-08-17T03:37:00.735Z,20.04
2022-08-17T03:39:34.781Z,20.14
2022-08-17T03:42:31.377Z,20.22
2022-08-17T03:45:06.735Z,20.31
2022-08-17T03:47:51.699Z,20.34
2022-08-17T03:50:44.760Z,20.35
2022-08-17T03:53:33.722Z,20.33
2022-08-17T03:56:30.768Z,20.35
2022-08-17T03:58:57.136Z,20.36
2022-08-17T04:01:23.766Z,20.36
2022-08-17T04:03:56.749Z,20.34
2022-08-17T04:06:30.781Z,20.29
2022-08-17T04:08:57.198Z,20.24
2022-08-17T04:11:30.747Z,20.22
2022-08-17T04:13:57.264Z,20.22
2022-08-17T04:16:33.525Z,20.23
2022-08-17T04:19:06.742Z,20.22
2022-08-17T04:21:40.755Z,20.15
2022-08-17T04:24:14.812Z,20.09
2022-08-17T04:26:53.826Z,20.04
2022-08-17T04:29:55.098Z,19.99
2022-08-17T04:32:24.857Z,20.01
2022-08-17T04:35:13.758Z,20.05
2022-08-17T04:37:40.222Z,20.07
2022-08-17T04:40:32.769Z,20.06
2022-08-17T04:43:07.763Z,20.04
2022-08-17T04:45:55.251Z,20.00
2022-08-17T04:48:35.402Z,19.97
2022-08-17T04:51:10.737Z,19.97
2022-08-17T04:53:38.890Z,20.00
2022-08-17T04:56:17.059Z,20.00
2022-08-17T04:58:48.132Z,20.03
2022-08-17T05:01:24.543Z,20.03
2022-08-17T05:03:59.766Z,20.03
2022-08-17T05:06:29.747Z,19.99
2022-08-17T05:08:57.817Z,19.97
2022-08-17T05:11:32.768Z,19.95
2022-08-17T05:13:59.657Z,19.99
2022-08-17T05:16:33.729Z,20.00
2022-08-17T05:19:00.208Z,20.02
2022-08-17T05:21:34.747Z,20.02
2022-08-17T05:24:01.188Z,19.98
2022-08-17T05:26:32.462Z,19.92
2022-08-17T05:29:10.746Z,19.85
2022-08-17T05:31:44.978Z,19.84
2022-08-17T05:34:17.729Z,19.82
2022-08-17T05:36:44.764Z,19.83
2022-08-17T05:39:22.772Z,19.78
2022-08-17T05:41:49.209Z,19.71
2022-08-17T05:44:16.502Z,19.68
2022-08-17T05:46:56.756Z,19.64
2022-08-17T05:49:27.883Z,19.64
2022-08-17T05:52:20.250Z,19.64
2022-08-17T05:55:23.731Z,19.63
2022-08-17T05:58:14.983Z,19.55
2022-08-17T06:00:57.392Z,19.55
2022-08-17T06:03:45.749Z,19.57
2022-08-17T06:06:44.744Z,19.62
2022-08-17T06:09:34.735Z,19.69
2022-08-17T06:12:28.756Z,19.72
2022-08-17T06:15:02.260Z,19.72
2022-08-17T06:17:44.745Z,19.78
2022-08-17T06:20:22.807Z,19.82
2022-08-17T06:23:14.004Z,19.87
2022-08-17T06:25:50.890Z,19.94
2022-08-17T06:28:37.032Z,20.03
2022-08-17T06:31:15.495Z,20.15
2022-08-17T06:33:53.736Z,20.16
2022-08-17T06:36:48.720Z,20.22
2022-08-17T06:39:46.758Z,20.27
2022-08-17T06:43:02.454Z,20.50
2022-08-17T06:45:40.730Z,20.48
2022-08-17T06:48:21.722Z,20.49
2022-08-17T06:51:18.744Z,20.48
2022-08-17T06:54:06.423Z,20.53
2022-08-17T06:56:55.438Z,20.53
2022-08-17T06:59:54.799Z,20.53
2022-08-17T07:02:56.867Z,20.63
2022-08-17T07:05:40.727Z,20.67
2022-08-17T07:08:18.520Z,20.71
2022-08-17T07:11:04.751Z,20.81
2022-08-17T07:13:37.379Z,20.76
2022-08-17T07:16:28.766Z,20.74
2022-08-17T07:18:57.200Z,20.76
2022-08-17T07:21:44.738Z,20.70
2022-08-17T07:24:26.234Z,20.64
2022-08-17T07:27:28.709Z,20.70
2022-08-17T07:30:16.743Z,20.68
2022-08-17T07:32:45.260Z,20.67
2022-08-17T07:35:15.331Z,20.67
2022-08-17T07:37:52.716Z,20.68
2022-08-17T07:40:34.786Z,20.59
2022-08-17T07:43:23.067Z,20.46
2022-08-17T07:46:25.714Z,20.33
2022-08-17T07:49:01.748Z,20.21
2022-08-17T07:51:31.511Z,20.14
2022-08-17T07:54:33.730Z,20.10
2022-08-17T07:57:29.408Z,20.09
2022-08-17T08:00:08.713Z,20.11
2022-08-17T08:02:52.737Z,20.15
2022-08-17T08:05:49.862Z,20.15
2022-08-17T08:08:39.851Z,20.16
2022-08-17T08:11:10.139Z,20.21
2022-08-17T08:13:52.809Z,20.27
2022-08-17T08:16:29.645Z,20.34
2022-08-17T08:19:06.721Z,20.31
2022-08-17T08:21:50.713Z,20.30
2022-08-17T08:25:08.732Z,20.30
2022-08-17T08:28:11.780Z,20.31
2022-08-17T08:30:53.706Z,20.38
2022-08-17T08:33:40.908Z,20.41
2022-08-17T08:37:12.982Z,20.40
2022-08-17T08:39:50.770Z,20.46
2022-08-17T08:42:27.324Z,20.56
2022-08-17T08:45:22.713Z,20.49
2022-08-17T08:48:22.911Z,20.49
2022-08-17T08:51:12.712Z,20.50
2022-08-17T08:53:55.396Z,20.49
2022-08-17T08:56:37.708Z,20.40
2022-08-17T08:59:10.690Z,20.31
2022-08-17T09:02:11.798Z,20.24
2022-08-17T09:05:13.931Z,20.20
2022-08-17T09:07:48.780Z,20.14
2022-08-17T09:10:27.321Z,20.13
2022-08-17T09:13:14.713Z,20.00
2022-08-17T09:15:46.715Z,20.00
2022-08-17T09:18:59.924Z,20.01
2022-08-17T09:21:48.765Z,19.96
2022-08-17T09:24:37.112Z,20.00
2022-08-17T09:27:28.711Z,20.03
2022-08-17T09:30:07.828Z,19.99
2022-08-17T09:32:50.735Z,20.00
2022-08-17T09:35:36.734Z,20.02
2022-08-17T09:38:22.300Z,19.92
2022-08-17T09:41:04.720Z,19.85
2022-08-17T09:43:46.705Z,19.90
2022-08-17T09:46:34.715Z,19.75
2022-08-17T09:49:25.397Z,19.60
2022-08-17T09:51:58.465Z,19.39
2022-08-17T09:54:39.701Z,19.30
2022-08-17T09:57:38.785Z,19.28
2022-08-17T10:00:18.769Z,19.36
2022-08-17T10:02:45.309Z,19.44
2022-08-17T10:05:43.706Z,19.65
2022-08-17T10:08:24.261Z,19.98
2022-08-17T10:11:19.725Z,20.24
2022-08-17T10:13:56.010Z,20.61
2022-08-17T10:16:44.693Z,20.99
2022-08-17T10:19:35.605Z,21.40
2022-08-17T10:22:37.914Z,21.35
2022-08-17T10:25:37.614Z,21.17
2022-08-17T10:28:25.808Z,20.95
2022-08-17T10:34:38.662Z,20.92
2022-08-17T10:37:19.810Z,20.99
2022-08-17T10:40:14.953Z,21.05
2022-08-17T10:42:59.174Z,20.90
2022-08-17T10:46:09.417Z,21.10
2022-08-17T10:49:16.619Z,21.21
2022-08-17T10:51:54.691Z,21.39
2022-08-17T10:54:24.038Z,21.69
2022-08-17T10:57:01.734Z,21.80
2022-08-17T10:59:43.743Z,21.59
2022-08-17T11:02:38.692Z,21.43
2022-08-17T11:05:23.627Z,21.25
2022-08-17T11:08:04.687Z,21.28
2022-08-17T11:10:51.978Z,21.28
2022-08-17T11:13:43.103Z,21.55
2022-08-17T11:16:41.763Z,21.53
2022-08-17T11:19:39.713Z,21.61
2022-08-17T11:22:33.609Z,21.75
2022-08-17T11:25:25.694Z,21.69
2022-08-17T11:28:40.680Z,21.66
2022-08-17T11:31:38.281Z,21.56
2022-08-17T11:34:35.169Z,21.34
2022-08-17T11:37:02.022Z,21.28
2022-08-17T11:40:12.938Z,21.32
2022-08-17T11:42:51.772Z,21.34
2022-08-17T11:45:43.755Z,21.33
2022-08-17T11:48:44.711Z,21.31
2022-08-17T11:51:35.669Z,21.25
2022-08-17T11:54:32.146Z,21.22
2022-08-17T11:57:27.734Z,21.16
2022-08-17T11:59:58.586Z,21.11
2022-08-17T12:02:37.698Z,21.07
2022-08-17T12:05:28.697Z,20.98
2022-08-17T12:08:33.480Z,20.89
2022-08-17T12:11:57.833Z,20.81
2022-08-17T12:14:45.445Z,20.81
2022-08-17T12:17:40.838Z,20.84
2022-08-17T12:20:56.780Z,20.91
2022-08-17T12:23:40.625Z,20.99
2022-08-17T12:26:28.675Z,21.10
2022-08-17T12:29:00.008Z,21.10
2022-08-17T12:31:44.686Z,21.03
2022-08-17T12:34:34.713Z,21.04
2022-08-17T12:37:05.757Z,21.11
2022-08-17T12:39:38.746Z,21.06
2022-08-17T12:42:28.717Z,20.77
2022-08-17T12:44:55.610Z,20.67
2022-08-17T12:47:29.445Z,20.68
2022-08-17T12:50:29.206Z,20.63
2022-08-17T12:53:02.674Z,20.77
2022-08-17T12:55:35.047Z,20.89
2022-08-17T12:58:13.606Z,20.99
2022-08-17T13:00:48.767Z,21.08
2022-08-17T13:03:25.691Z,21.18
2022-08-17T13:05:52.211Z,21.17
2022-08-17T13:08:48.686Z,21.21
2022-08-17T13:11:16.120Z,21.22
2022-08-17T13:13:52.726Z,21.21
2022-08-17T13:19:39.869Z,21.14
2022-08-17T13:22:18.694Z,21.10
2022-08-17T13:25:04.678Z,21.14
2022-08-17T13:27:32.855Z,21.12
2022-08-17T13:30:18.694Z,21.07
2022-08-17T13:32:55.898Z,21.02
2022-08-17T13:35:44.136Z,20.93
2022-08-17T13:38:42.681Z,20.86
2022-08-17T13:41:36.687Z,20.82
2022-08-17T13:44:39.676Z,20.80
2022-08-17T13:47:16.565Z,20.85
2022-08-17T13:49:50.711Z,20.76
2022-08-17T13:52:50.071Z,20.77
2022-08-17T13:55:28.691Z,20.83
2022-08-17T13:58:07.180Z,20.88
2022-08-17T14:00:42.683Z,20.89
2022-08-17T14:03:16.684Z,20.80
2022-08-17T14:05:43.238Z,20.75
2022-08-17T14:08:20.743Z,20.73
2022-08-17T14:10:57.109Z,20.84
2022-08-17T14:13:30.696Z,20.91
2022-08-17T14:15:57.306Z,20.95
2022-08-17T14:18:55.541Z,20.92
2022-08-17T14:21:23.697Z,20.94
2022-08-17T14:26:52.720Z,21.09
2022-08-17T14:29:27.685Z,21.13
2022-08-17T14:31:55.367Z,21.18
2022-08-17T14:34:30.691Z,21.18
2022-08-17T14:36:57.086Z,21.19
2022-08-17T14:39:29.731Z,21.24
2022-08-17T14:42:04.698Z,21.11
2022-08-17T14:44:31.271Z,21.16
2022-08-17T14:46:57.731Z,21.30
2022-08-17T14:49:32.712Z,21.39
2022-08-17T14:52:06.676Z,21.28
2022-08-17T14:54:45.158Z,21.27
2022-08-17T14:57:33.743Z,21.19
2022-08-17T15:00:06.671Z,21.22
2022-08-17T15:02:44.069Z,21.16
2022-08-17T15:05:16.690Z,21.12
2022-08-17T15:07:44.511Z,21.06
2022-08-17T15:10:23.411Z,21.18
2022-08-17T15:12:52.150Z,21.21
2022-08-17T15:15:24.662Z,21.28
2022-08-17T15:17:51.582Z,21.31
2022-08-17T15:20:27.738Z,21.34
2022-08-17T15:22:56.105Z,21.39
2022-08-17T15:25:24.947Z,21.41
2022-08-17T15:27:58.705Z,21.43
2022-08-17T15:30:27.143Z,21.31
2022-08-17T15:33:00.762Z,21.27
2022-08-17T15:35:30.411Z,21.29
2022-08-17T15:38:11.799Z,21.16
2022-08-17T15:40:43.373Z,21.11
2022-08-17T15:43:26.450Z,21.08
2022-08-17T15:46:18.666Z,21.23
2022-08-17T15:48:58.671Z,21.29
2022-08-17T15:51:41.219Z,21.30
2022-08-17T15:54:18.912Z,21.32
2022-08-17T15:56:56.680Z,21.45
2022-08-17T15:59:23.093Z,21.51
2022-08-17T16:03:14.688Z,21.62
2022-08-17T16:04:44.142Z,21.91
2022-08-17T16:07:21.872Z,22.06
2022-08-17T16:09:58.694Z,22.20
2022-08-17T16:12:32.673Z,22.17
2022-08-17T16:14:59.256Z,21.97
2022-08-17T16:17:38.898Z,21.94
2022-08-17T16:20:20.440Z,21.95
2022-08-17T16:22:49.225Z,21.83
2022-08-17T16:25:52.212Z,21.73
2022-08-17T16:28:22.735Z,21.66
2022-08-17T16:31:08.878Z,21.59
2022-08-17T16:33:37.598Z,21.58
2022-08-17T16:36:10.675Z,21.57
2022-08-17T16:38:38.640Z,21.54
2022-08-17T16:41:12.660Z,21.47
2022-08-17T16:43:45.711Z,21.37
2022-08-17T16:46:45.887Z,21.33
2022-08-17T16:49:35.749Z,21.29
2022-08-17T16:52:14.669Z,21.29
2022-08-17T16:55:01.348Z,21.21
2022-08-17T16:57:34.696Z,21.21
2022-08-17T17:00:12.659Z,21.19
2022-08-17T17:02:57.867Z,21.16
2022-08-17T17:05:55.222Z,21.17
2022-08-17T17:08:50.823Z,21.20
2022-08-17T17:11:34.047Z,21.27
2022-08-17T17:14:10.675Z,21.39
2022-08-17T17:17:10.582Z,21.45
2022-08-17T17:19:45.948Z,21.57
2022-08-17T17:22:24.601Z,21.59
2022-08-17T17:25:21.679Z,21.60
2022-08-17T17:28:12.664Z,21.61
2022-08-17T17:31:03.260Z,21.63
2022-08-17T17:33:52.575Z,21.58
2022-08-17T17:36:32.590Z,21.46
2022-08-17T17:39:12.578Z,21.35
2022-08-17T17:41:51.444Z,21.21
2022-08-17T17:44:30.657Z,21.13
2022-08-17T17:47:00.091Z,21.11
2022-08-17T17:49:30.300Z,21.11
2022-08-17T17:52:18.897Z,21.16
2022-08-17T17:55:02.593Z,21.24
2022-08-17T17:58:02.576Z,21.26
2022-08-17T18:00:53.355Z,21.27
2022-08-17T18:03:50.583Z,21.25
2022-08-17T18:06:45.434Z,21.21
2022-08-17T18:09:38.578Z,21.20
2022-08-17T18:12:39.002Z,21.16
2022-08-17T18:15:21.465Z,20.95
2022-08-17T18:18:31.081Z,20.79
2022-08-17T18:21:14.568Z,20.68
2022-08-17T18:24:01.835Z,20.69
2022-08-17T18:26:56.578Z,20.67
2022-08-17T18:29:38.777Z,20.73
2022-08-17T18:32:19.350Z,20.67
2022-08-17T18:34:55.582Z,20.62
2022-08-17T18:37:39.568Z,20.62
2022-08-17T18:40:26.590Z,20.63
2022-08-17T18:43:05.152Z,20.62
2022-08-17T18:45:56.583Z,20.58
2022-08-17T18:48:29.794Z,20.46
2022-08-17T18:51:40.733Z,20.40
2022-08-17T18:54:23.957Z,20.28
2022-08-17T18:57:05.556Z,20.16
2022-08-17T18:59:42.305Z,20.10
2022-08-17T19:02:34.634Z,20.08
2022-08-17T19:05:26.259Z,20.05
2022-08-17T19:07:59.634Z,20.03
2022-08-17T19:10:46.365Z,19.95
2022-08-17T19:13:36.669Z,19.88
2022-08-17T19:16:18.718Z,19.88
2022-08-17T19:19:20.672Z,19.91
2022-08-17T19:22:13.612Z,19.93
2022-08-17T19:25:02.579Z,19.95
2022-08-17T19:27:46.510Z,19.99
2022-08-17T19:30:24.661Z,20.02
2022-08-17T19:32:51.428Z,20.02
2022-08-17T19:35:20.161Z,20.02
2022-08-17T19:37:59.601Z,20.03
2022-08-17T19:43:40.639Z,20.03
2022-08-17T19:46:35.561Z,20.04
2022-08-17T19:49:22.381Z,20.04
2022-08-17T19:52:26.596Z,20.03
2022-08-17T19:55:08.725Z,20.02
2022-08-17T19:57:45.528Z,20.02
2022-08-17T20:00:22.567Z,20.03
2022-08-17T20:03:06.074Z,20.00
2022-08-17T20:06:10.876Z,19.99
2022-08-17T20:08:39.193Z,19.95
2022-08-17T20:11:26.575Z,19.91
2022-08-17T20:14:03.603Z,19.93
2022-08-17T20:16:46.552Z,19.92
2022-08-17T20:19:29.281Z,19.91
2022-08-17T20:22:10.553Z,19.88
2022-08-17T20:24:54.618Z,19.86
2022-08-17T20:27:31.589Z,19.85
2022-08-17T20:30:12.129Z,19.87
2022-08-17T20:33:02.568Z,19.83
2022-08-17T20:35:37.254Z,19.85
2022-08-17T20:38:48.775Z,19.82
2022-08-17T20:41:20.910Z,19.83
2022-08-17T20:43:58.576Z,19.72
2022-08-17T20:46:40.330Z,19.59
2022-08-17T20:49:29.541Z,19.50
2022-08-17T20:52:13.923Z,19.47
2022-08-17T20:54:54.574Z,19.47
2022-08-17T20:57:33.577Z,19.49
2022-08-17T21:00:24.552Z,19.50
2022-08-17T21:03:18.565Z,19.41
2022-08-17T21:05:57.327Z,19.32
2022-08-17T21:08:46.587Z,19.22
2022-08-17T21:12:03.104Z,19.15
2022-08-17T21:14:29.359Z,19.10
2022-08-17T21:17:22.363Z,19.02
2022-08-17T21:20:32.508Z,18.96
2022-08-17T21:23:32.197Z,18.92
2022-08-17T21:26:35.752Z,18.89
2022-08-17T21:29:31.608Z,18.87
2022-08-17T21:32:06.759Z,18.90
2022-08-17T21:34:44.211Z,18.94
2022-08-17T21:37:26.602Z,18.96
2022-08-17T21:40:01.677Z,19.00
2022-08-17T21:42:42.757Z,18.99
2022-08-17T21:45:19.627Z,18.98
2022-08-17T21:48:12.764Z,18.91
2022-08-17T21:50:41.752Z,18.89
2022-08-17T21:53:20.555Z,18.86
2022-08-17T21:55:50.368Z,18.86
2022-08-17T21:58:40.759Z,18.80
2022-08-17T22:01:28.637Z,18.79
2022-08-17T22:04:26.585Z,18.75
2022-08-17T22:06:57.114Z,18.66
2022-08-17T22:09:42.808Z,18.60
2022-08-17T22:12:13.595Z,18.60
2022-08-17T22:14:52.506Z,18.62
2022-08-17T22:17:29.794Z,18.60
2022-08-17T22:20:22.552Z,18.58
2022-08-17T22:23:07.419Z,18.60
2022-08-17T22:25:43.551Z,18.62
2022-08-17T22:28:12.223Z,18.64
2022-08-17T22:30:40.170Z,18.60
2022-08-17T22:33:50.761Z,18.50
2022-08-17T22:36:33.804Z,18.41
2022-08-17T22:39:10.725Z,18.41
2022-08-17T22:41:42.157Z,18.43
2022-08-17T22:44:36.738Z,18.38
2022-08-17T22:47:16.441Z,18.41
2022-08-17T22:50:06.581Z,18.40
2022-08-17T22:53:03.749Z,18.35
2022-08-17T22:55:50.910Z,18.30
2022-08-17T22:58:59.141Z,18.28
2022-08-17T23:25:09.724Z,18.05
2022-08-17T23:27:36.828Z,18.01
2022-08-17T23:30:10.769Z,17.98
2022-08-17T23:32:47.413Z,17.95
2022-08-17T23:35:40.097Z,17.92
2022-08-17T23:38:12.973Z,17.88
2022-08-17T23:40:46.609Z,17.86
2022-08-17T23:43:23.937Z,17.83
2022-08-17T23:45:58.554Z,17.81
2022-08-17T23:48:36.031Z,17.75
2022-08-17T23:51:26.735Z,17.75
2022-08-17T23:53:58.268Z,17.73
2022-08-17T23:56:26.058Z,17.71
2022-08-17T23:59:04.653Z,17.69
